Flight Track Log - Related Links

Times and Time Zones

All times are in EDT time to prevent confusion due to time zone crossing. See the N465TP flight status page for this flight to view local times or setup timezone preferences in your user account.

Time Position Orientation Groundspeed Altitude Reporting Facility
EDT Latitude Longitude Course Direction KTS MPH feet Rate Location/Type
Fri 08:14:21 PM 44.9408 -105.0256 265° West 150 173 9,500  Level Salt Lake Center
Fri 08:15:23 PM 44.9372 -105.0875 265° West 158 182 10,800 1,268 Climbing Salt Lake Center
Fri 08:16:24 PM 44.9308 -105.1458 261° West 155 178 12,100 1,268 Climbing Salt Lake Center
Fri 08:17:26 PM 44.9261 -105.2061 264° West 154 177 13,400 1,161 Climbing Salt Lake Center
Fri 08:18:28 PM 44.9194 -105.2658 261° West 155 178 14,500 1,065 Climbing Salt Lake Center
Fri 08:19:30 PM 44.9133 -105.3267 262° West 155 178 15,600 1,171 Climbing Salt Lake Center
Fri 08:20:31 PM 44.9133 -105.4011 270° West 159 183 16,900 1,171 Climbing Salt Lake Center
Fri 08:21:33 PM 44.9067 -105.4647 262° West 162 186 18,000 1,113 Climbing Salt Lake Center
Fri 08:22:35 PM 44.9003 -105.5292 262° West 165 190 19,200 927 Climbing Salt Lake Center
Fri 08:23:36 PM 44.8947 -105.5983 264° West 173 199 19,900 390 Climbing Salt Lake Center
Fri 08:24:38 PM 44.8858 -105.6761 261° West 193 222 20,000 48 Climbing Salt Lake Center
Fri 08:25:40 PM 44.8778 -105.7617 262° West 213 245 20,000  Level Salt Lake Center
Fri 08:26:42 PM 44.8708 -105.8500 264° West 225 259 20,000  Level Salt Lake Center
Fri 08:27:43 PM 44.8631 -105.9378 263° West 226 260 20,000  Level Salt Lake Center
Fri 08:28:45 PM 44.8531 -106.0431 262° West 226 260 20,000  Level Salt Lake Center
Fri 08:29:47 PM 44.8444 -106.1306 262° West 226 260 20,000  Level Salt Lake Center
Fri 08:30:48 PM 44.8469 -106.2192 272° West 242 278 20,000  Level Salt Lake Center
Fri 08:31:50 PM 44.8742 -106.3042 294° West 237 273 20,000  Level Salt Lake Center
Fri 08:32:52 PM 44.8947 -106.3903 289° West 235 270 20,000  Level Salt Lake Center
Fri 08:33:54 PM 44.9014 -106.4803 276° West 233 268 20,000  Level Salt Lake Center
Fri 08:34:55 PM 44.8833 -106.5867 257° West 231 266 20,000  Level Salt Lake Center
Fri 08:35:57 PM 44.8689 -106.6733 257° West 229 264 20,000  Level Salt Lake Center
Fri 08:36:59 PM 44.8597 -106.7611 262° West 228 262 20,000  Level Salt Lake Center
Fri 08:38:00 PM 44.8475 -106.8483 259° West 227 261 20,000  Level Salt Lake Center
Fri 08:39:02 PM 44.8364 -106.9333 260° West 224 258 20,000  Level Salt Lake Center
Fri 08:40:04 PM 44.8236 -107.0192 258° West 224 258 20,000  Level Salt Lake Center
Fri 08:41:06 PM 44.8275 -107.1061 274° West 236 272 20,000  Level Salt Lake Center
Fri 08:42:07 PM 44.8547 -107.2053 291° West 230 265 20,000  Level Salt Lake Center
Fri 08:43:09 PM 44.8494 -107.2886 265° West 222 255 20,000  Level Salt Lake Center
Fri 08:44:11 PM 44.8325 -107.3683 253° West 216 249 20,000  Level Salt Lake Center
Fri 08:45:13 PM 44.8167 -107.4497 255° West 214 246 20,000  Level Salt Lake Center
Fri 08:46:14 PM 44.8022 -107.5325 256° West 216 249 20,000  Level Salt Lake Center
Fri 08:47:16 PM 44.7875 -107.6147 256° West 217 250 20,000  Level Salt Lake Center
Fri 08:48:18 PM 44.7717 -107.6961 255° West 216 249 20,000  Level Salt Lake Center
Fri 08:49:20 PM 44.7553 -107.7797 255° West 218 251 20,000  Level Salt Lake Center
Fri 08:50:21 PM 44.7394 -107.8656 255° West 221 254 20,000  Level Salt Lake Center
Fri 08:51:23 PM 44.7244 -107.9508 256° West 221 254 20,000  Level Salt Lake Center
Fri 08:52:25 PM 44.7064 -108.0511 256° West 219 252 20,000  Level Salt Lake Center
Fri 08:53:27 PM 44.6919 -108.1336 256° West 218 251 20,000  Level Salt Lake Center
Fri 08:54:28 PM 44.6764 -108.2161 255° West 218 251 20,000  Level Salt Lake Center
Fri 08:55:30 PM 44.6608 -108.3006 256° West 222 255 20,000 -629 Level Salt Lake Center
Fri 08:56:32 PM 44.6458 -108.3794 255° West 214 246 18,700 -1,597 Descending Salt Lake Center
Fri 08:57:34 PM 44.6306 -108.4586 255° West 210 242 16,700 -1,902 Descending Salt Lake Center
Fri 08:58:35 PM 44.6158 -108.5383 255° West 211 243 14,800 -2,098 Descending Salt Lake Center
Fri 08:59:37 PM 44.5975 -108.6342 255° West 212 244 12,400 -2,323 Descending Salt Lake Center
Fri 09:01:00 PM 44.5681 -108.7417 257° West  Level FlightAware Approximate
Fri 09:08:00 PM 44.5167 -109.0167 251° West  Level FlightAware Approximate
Fri 09:09:00 PM 44.5202 -109.0238 251° West  Level Estimated
Fri 09:10:00 PM 44.5167 -109.0167 251° West  Level FlightAware Approximate
Fri 09:11:00 PM 44.5202 -109.0238 251° West  Level Estimated
Fri 09:12:00 PM 44.5167 -109.0167 251° West  Level FlightAware Approximate
Fri 09:13:00 PM 44.5202 -109.0238 251° West  Level Estimated
Fri 09:14:00 PM 44.5167 -109.0167 251° West  Level FlightAware Approximate
Fri 09:15:00 PM 44.5202 -109.0238 251° West  Level Estimated
Fri 09:16:00 PM 44.5167 -109.0167 251° West  Level FlightAware Approximate
Fri 09:17:00 PM 44.5202 -109.0238 251° West  Level Estimated
Fri 09:18:00 PM 44.5167 -109.0167 251° West  Level FlightAware Approximate
Fri 09:19:00 PM 44.5202 -109.0238 251° West  Level Estimated
Fri 09:20:00 PM 44.5167 -109.0167 251° West  Level FlightAware Approximate

Login

Don't have an account? Register now (free) for customized features, flight alerts, and more!